Time;durP1;ratioP1;P1;durP2;ratioP2;P2;SDS_P1;SDS_P2;PMS_P1;PMS_P2;Temp;Humidity;BMP_temperature;BMP_pressure;BME280_temperature;BME280_humidity;BME280_pressure;Samples;Min_cycle;Max_cycle;Signal;HPM_P1;HPM_P2
2022/02/07 00:01:06;;;;;;;6.15;0.65;;;1.40;99.90;;;;;;4982691;28;20077;-76
2022/02/07 00:03:43;;;;;;;6.72;1.13;;;1.40;99.90;;;;;;4986986;28;20086;-76
2022/02/07 00:06:13;;;;;;;8.40;0.85;;;1.40;99.90;;;;;;4985762;28;20046;-76
2022/02/07 00:08:43;;;;;;;3.42;1.20;;;1.30;99.90;;;;;;4986670;28;20661;-76
2022/02/07 00:11:14;;;;;;;5.65;0.93;;;1.40;99.90;;;;;;4990593;28;20258;-76
2022/02/07 00:13:42;;;;;;;6.00;0.80;;;1.30;99.90;;;;;;4984258;28;20054;-76
2022/02/07 00:16:09;;;;;;;5.10;1.08;;;1.40;99.90;;;;;;4977465;28;20038;-75
2022/02/07 00:18:38;;;;;;;5.38;0.82;;;1.40;99.90;;;;;;4982612;28;20047;-75
2022/02/07 00:21:05;;;;;;;7.32;1.27;;;1.40;99.90;;;;;;4984002;28;20743;-75
2022/02/07 00:23:33;;;;;;;4.18;1.42;;;1.40;99.90;;;;;;4985487;28;20100;-75
2022/02/07 00:25:59;;;;;;;7.75;1.50;;;1.40;99.90;;;;;;4984619;28;20078;-75
2022/02/07 00:28:26;;;;;;;8.10;1.45;;;1.40;99.90;;;;;;4979430;28;20070;-75
2022/02/07 00:30:53;;;;;;;3.40;0.70;;;1.40;99.90;;;;;;4967525;28;20502;-76
2022/02/07 00:33:20;;;;;;;5.07;1.20;;;1.50;99.90;;;;;;4983391;28;20136;-76
2022/02/07 00:35:47;;;;;;;9.38;1.23;;;1.50;99.90;;;;;;4967164;28;20039;-76
2022/02/07 00:38:18;;;;;;;11.27;2.22;;;1.60;99.90;;;;;;4984065;28;20054;-76
2022/02/07 00:46:11;;;;;;;9.32;1.25;;;1.50;99.90;;;;;;4983545;28;20084;-76
2022/02/07 00:48:39;;;;;;;9.75;2.00;;;1.60;99.90;;;;;;4948093;28;20050;-76
2022/02/07 00:51:07;;;;;;;8.98;1.95;;;1.60;99.90;;;;;;4963214;28;20081;-76
2022/02/07 00:53:34;;;;;;;8.70;1.35;;;1.70;99.90;;;;;;4979936;28;20049;-75
2022/02/07 00:56:02;;;;;;;7.20;1.60;;;1.70;99.90;;;;;;4995913;28;20153;-75
2022/02/07 00:58:33;;;;;;;13.07;3.00;;;1.70;99.90;;;;;;4947912;28;20141;-75
2022/02/07 01:01:00;;;;;;;13.60;2.42;;;1.70;99.90;;;;;;4966623;28;20050;-75
2022/02/07 01:03:32;;;;;;;6.07;1.20;;;1.70;99.90;;;;;;4968759;28;20049;-74
2022/02/07 01:06:00;;;;;;;17.50;3.15;;;1.70;99.90;;;;;;4986502;28;20348;-74
2022/02/07 01:08:39;;;;;;;14.20;2.72;;;1.70;99.90;;;;;;4981615;28;20045;-75
2022/02/07 01:11:30;;;;;;;;;;;1.80;99.90;;;;;;4993936;28;20048;-74
2022/02/07 01:19:53;;;;;;;12.00;2.13;;;1.80;99.90;;;;;;4981964;28;20126;-74
2022/02/07 01:47:43;;;;;;;8.32;1.48;;;1.80;99.90;;;;;;4974155;28;20299;-72
2022/02/07 01:50:45;;;;;;;4.47;1.02;;;1.80;99.90;;;;;;4924994;28;20052;-72
2022/02/07 01:55:51;;;;;;;14.45;1.38;;;1.80;99.90;;;;;;4957488;28;20168;-73
2022/02/07 01:58:17;;;;;;;11.98;1.55;;;1.80;99.90;;;;;;4960035;28;20055;-72
2022/02/07 02:00:44;;;;;;;7.30;1.15;;;1.80;99.90;;;;;;4964407;28;20047;-72
2022/02/07 02:03:11;;;;;;;10.57;1.83;;;1.80;99.90;;;;;;4955092;28;20054;-72
2022/02/07 02:05:55;;;;;;;5.65;1.00;;;1.80;99.90;;;;;;4978709;28;20137;-71
2022/02/07 02:08:38;;;;;;;5.53;1.60;;;1.80;99.90;;;;;;4975437;28;20121;-73
2022/02/07 02:11:07;;;;;;;6.60;1.20;;;1.80;99.90;;;;;;4967010;28;20042;-72
2022/02/07 02:16:36;;;;;;;7.45;1.35;;;1.80;99.90;;;;;;4955408;28;20043;-71
2022/02/07 02:19:44;;;;;;;9.15;1.30;;;1.80;99.90;;;;;;4974210;28;20178;-72
2022/02/07 02:46:52;;;;;;;10.75;1.50;;;1.90;99.90;;;;;;4925219;28;20047;-72
2022/02/07 02:49:22;;;;;;;10.88;2.08;;;1.90;99.90;;;;;;4971303;28;20083;-71
2022/02/07 02:51:48;;;;;;;11.38;1.65;;;2.00;99.90;;;;;;4971876;28;20043;-70
2022/02/07 02:54:15;;;;;;;14.50;2.78;;;1.90;99.90;;;;;;4923851;29;20083;-71
2022/02/07 02:56:42;;;;;;;16.55;2.13;;;1.90;99.90;;;;;;4971542;28;20142;-71
2022/02/07 02:59:10;;;;;;;6.93;1.70;;;2.00;99.90;;;;;;4955571;28;20106;-72
2022/02/07 03:01:39;;;;;;;13.82;2.58;;;2.00;99.90;;;;;;4953933;28;20055;-72
2022/02/07 03:04:09;;;;;;;13.23;2.60;;;2.00;99.90;;;;;;4924025;29;20342;-72
2022/02/07 03:06:38;;;;;;;9.23;1.92;;;2.00;99.90;;;;;;4931873;29;20051;-72
2022/02/07 03:09:13;;;;;;;9.55;2.05;;;2.00;99.90;;;;;;4939360;28;20142;-71
2022/02/07 03:11:41;;;;;;;12.00;1.60;;;2.00;99.90;;;;;;4954415;28;20053;-71
2022/02/07 03:14:19;;;;;;;14.43;2.08;;;2.10;99.90;;;;;;4977788;28;20047;-71
2022/02/07 03:16:50;;;;;;;11.77;1.75;;;2.00;99.90;;;;;;4962190;28;20051;-70
2022/02/07 03:19:18;;;;;;;21.42;2.97;;;2.10;99.90;;;;;;4970006;28;20043;-71
2022/02/07 03:21:48;;;;;;;15.68;2.78;;;2.00;99.90;;;;;;4956133;28;20526;-71
2022/02/07 03:24:16;;;;;;;14.27;2.35;;;2.10;99.90;;;;;;4955883;28;20594;-71
2022/02/07 03:27:02;;;;;;;8.35;1.52;;;2.10;99.90;;;;;;4924341;28;20063;-71
2022/02/07 03:29:33;;;;;;;12.63;1.80;;;2.10;99.90;;;;;;4925934;29;20627;-72
2022/02/07 03:32:00;;;;;;;15.35;1.88;;;2.10;99.90;;;;;;4940297;28;20043;-72
2022/02/07 03:34:44;;;;;;;13.50;2.67;;;2.10;99.90;;;;;;4943191;28;20438;-71
2022/02/07 03:37:15;;;;;;;18.42;2.30;;;2.10;99.90;;;;;;4942328;28;20047;-72
2022/02/07 03:39:42;;;;;;;17.23;2.20;;;2.00;99.90;;;;;;4954047;28;20074;-71
2022/02/07 03:42:10;;;;;;;17.17;2.42;;;2.00;99.90;;;;;;4960994;28;20054;-71
2022/02/07 03:44:40;;;;;;;13.38;2.58;;;2.00;99.90;;;;;;4950952;28;20055;-71
2022/02/07 03:47:07;;;;;;;9.48;1.88;;;1.90;99.90;;;;;;4941855;28;20051;-71
2022/02/07 03:49:35;;;;;;;20.00;2.42;;;1.90;99.90;;;;;;4942524;28;20055;-71
2022/02/07 03:52:02;;;;;;;19.00;2.70;;;1.80;99.90;;;;;;4942500;28;20048;-71
2022/02/07 03:54:30;;;;;;;11.65;1.45;;;1.80;99.90;;;;;;4958929;28;20595;-71
2022/02/07 03:56:59;;;;;;;10.75;2.00;;;1.70;99.90;;;;;;4959882;28;20642;-71
2022/02/07 03:59:26;;;;;;;12.48;1.88;;;1.80;99.90;;;;;;4959754;28;20054;-71
2022/02/07 04:01:54;;;;;;;9.65;1.75;;;1.80;99.90;;;;;;4959977;28;20051;-71
2022/02/07 04:04:30;;;;;;;22.92;2.30;;;1.80;99.90;;;;;;4960483;28;20059;-71
2022/02/07 04:06:57;;;;;;;16.50;2.90;;;1.80;99.90;;;;;;4952467;28;20133;-71
2022/02/07 04:09:34;;;;;;;15.45;2.92;;;1.80;99.90;;;;;;4955704;28;20049;-70
2022/02/07 04:12:09;;;;;;;16.08;2.60;;;1.90;99.90;;;;;;4976503;28;20058;-71
2022/02/07 04:14:43;;;;;;;16.80;2.60;;;1.90;99.90;;;;;;4975531;28;20748;-71
2022/02/07 04:17:21;;;;;;;13.55;2.03;;;1.90;99.90;;;;;;4941917;28;20549;-71
2022/02/07 04:19:56;;;;;;;18.70;2.30;;;1.90;99.90;;;;;;4945024;28;20055;-72
2022/02/07 04:22:28;;;;;;;14.95;3.70;;;2.00;99.90;;;;;;4945001;29;20043;-71
2022/02/07 04:24:59;;;;;;;11.73;1.77;;;2.00;99.90;;;;;;4945154;28;20078;-72
2022/02/07 04:27:33;;;;;;;13.70;2.17;;;2.00;99.90;;;;;;4945293;28;20087;-72
2022/02/07 04:30:00;;;;;;;12.30;2.03;;;2.00;99.90;;;;;;4961717;28;20502;-72
2022/02/07 04:32:32;;;;;;;19.98;1.98;;;2.00;99.90;;;;;;4961920;28;20497;-72
2022/02/07 04:34:59;;;;;;;15.75;2.33;;;2.00;99.90;;;;;;4981067;28;20046;-72
2022/02/07 04:37:28;;;;;;;10.43;1.88;;;2.00;99.90;;;;;;4947274;28;20046;-71
2022/02/07 04:39:55;;;;;;;10.70;1.88;;;1.90;99.90;;;;;;4967995;28;20058;-72
2022/02/07 04:42:28;;;;;;;9.48;1.75;;;1.90;99.90;;;;;;4938156;28;20663;-71
2022/02/07 04:47:53;;;;;;;18.20;2.17;;;1.90;99.90;;;;;;4924440;28;20058;-71
2022/02/07 04:53:35;;;;;;;19.48;2.67;;;2.00;99.90;;;;;;4943263;29;20059;-71
2022/02/07 04:56:19;;;;;;;19.33;2.75;;;2.00;99.90;;;;;;4943512;28;20059;-71
2022/02/07 05:01:43;;;;;;;18.13;2.20;;;2.00;99.90;;;;;;4960360;28;20482;-71
2022/02/07 05:04:22;;;;;;;12.45;3.55;;;2.00;99.90;;;;;;4934084;29;20047;-70
2022/02/07 05:15:12;;;;;;;;;;;2.10;99.90;;;;;;4946180;28;20079;-71
2022/02/07 05:17:40;;;;;;;15.20;2.58;;;2.10;99.90;;;;;;4955176;28;19933;-70
2022/02/07 05:20:16;;;;;;;8.45;1.77;;;2.20;99.90;;;;;;4942527;28;20533;-71
2022/02/07 05:22:50;;;;;;;17.88;2.13;;;2.20;99.90;;;;;;4943368;28;20229;-70
2022/02/07 05:25:36;;;;;;;15.50;2.47;;;2.30;99.90;;;;;;4945123;28;20526;-70
2022/02/07 05:28:23;;;;;;;15.60;2.63;;;2.30;99.90;;;;;;4943079;28;20043;-70
2022/02/07 05:31:10;;;;;;;11.45;1.83;;;2.40;99.90;;;;;;4943157;28;20398;-71
2022/02/07 05:34:03;;;;;;;17.42;2.33;;;2.40;99.90;;;;;;4943372;28;20501;-73
2022/02/07 05:36:50;;;;;;;16.27;2.28;;;2.40;99.90;;;;;;4948273;28;20145;-70
2022/02/07 05:39:35;;;;;;;12.48;2.00;;;2.40;99.90;;;;;;4966505;28;20051;-72
2022/02/07 05:42:21;;;;;;;12.63;1.90;;;2.50;99.90;;;;;;4962192;28;20420;-72
2022/02/07 05:45:07;;;;;;;13.65;2.40;;;2.50;99.90;;;;;;4963208;28;20406;-71
2022/02/07 05:47:53;;;;;;;10.68;2.13;;;2.50;99.90;;;;;;4951519;28;20066;-73
2022/02/07 05:50:46;;;;;;;13.88;1.77;;;2.50;99.90;;;;;;4921580;28;20269;-73
2022/02/07 05:53:21;;;;;;;13.65;1.92;;;2.50;99.90;;;;;;4923806;29;20278;-72
2022/02/07 05:56:03;;;;;;;14.05;2.22;;;2.40;99.90;;;;;;4955063;28;20058;-70
2022/02/07 05:58:52;;;;;;;15.85;2.17;;;2.40;99.90;;;;;;4922778;29;20237;-72
2022/02/07 06:01:31;;;;;;;25.67;2.60;;;2.40;99.90;;;;;;4922772;29;20055;-72
2022/02/07 06:03:59;;;;;;;14.60;1.77;;;2.40;99.90;;;;;;4930109;29;20078;-73
2022/02/07 06:06:27;;;;;;;14.93;2.38;;;2.50;99.90;;;;;;4967402;28;20047;-72
2022/02/07 06:08:54;;;;;;;10.55;2.22;;;2.50;99.90;;;;;;4971013;28;20094;-72
2022/02/07 06:11:23;;;;;;;21.40;3.10;;;2.50;99.90;;;;;;4965967;28;20055;-72
2022/02/07 06:13:53;;;;;;;15.90;2.63;;;2.50;99.90;;;;;;4975525;28;20075;-72
2022/02/07 06:16:20;;;;;;;16.05;3.30;;;2.50;99.90;;;;;;4942148;28;20047;-72
2022/02/07 06:18:52;;;;;;;15.77;2.95;;;2.50;99.90;;;;;;4973276;28;20050;-72
2022/02/07 06:21:23;;;;;;;20.85;3.45;;;2.50;99.90;;;;;;4941821;28;20087;-73
2022/02/07 06:23:54;;;;;;;16.25;3.00;;;2.40;99.90;;;;;;4942184;29;20047;-70
2022/02/07 06:26:22;;;;;;;17.13;3.25;;;2.30;99.90;;;;;;4940761;28;20167;-71
2022/02/07 06:28:51;;;;;;;17.05;2.92;;;2.30;99.90;;;;;;4941155;28;20145;-70
2022/02/07 06:31:18;;;;;;;17.27;3.15;;;2.30;99.90;;;;;;4941105;28;20391;-70
2022/02/07 06:33:46;;;;;;;18.63;3.35;;;2.30;99.90;;;;;;4935052;28;20054;-71
2022/02/07 06:36:14;;;;;;;26.75;4.07;;;2.30;99.90;;;;;;4966126;28;20059;-71
2022/02/07 06:38:41;;;;;;;19.42;4.88;;;2.30;99.90;;;;;;4937728;29;20051;-72
2022/02/07 06:41:09;;;;;;;16.60;4.28;;;2.40;99.90;;;;;;4969582;28;20093;-72
2022/02/07 06:43:36;;;;;;;19.90;3.95;;;2.40;99.90;;;;;;4967211;28;20236;-73
2022/02/07 06:46:06;;;;;;;21.45;4.63;;;2.40;99.90;;;;;;4967664;28;20043;-73
2022/02/07 06:48:35;;;;;;;21.80;3.42;;;2.40;99.90;;;;;;4925671;28;20570;-72
2022/02/07 06:51:06;;;;;;;25.42;3.22;;;2.50;99.90;;;;;;4940608;28;20422;-72
2022/02/07 06:53:34;;;;;;;17.75;3.10;;;2.50;99.90;;;;;;4974088;28;20077;-73
2022/02/07 06:56:03;;;;;;;25.23;3.03;;;2.40;99.90;;;;;;4939983;28;20454;-73
2022/02/07 06:58:32;;;;;;;21.73;3.28;;;2.30;99.90;;;;;;4973920;28;20070;-72
2022/02/07 07:01:00;;;;;;;16.02;3.47;;;2.30;99.90;;;;;;4935464;28;20546;-73
2022/02/07 07:03:32;;;;;;;23.38;3.75;;;2.20;99.90;;;;;;4926265;28;20106;-73
2022/02/07 07:06:00;;;;;;;19.33;3.75;;;2.30;99.90;;;;;;4933332;28;20547;-73
2022/02/07 07:08:35;;;;;;;22.00;4.60;;;2.30;99.90;;;;;;4969049;28;20488;-72
2022/02/07 07:11:03;;;;;;;23.43;3.73;;;2.40;99.90;;;;;;4932848;28;20050;-72
2022/02/07 07:13:41;;;;;;;16.13;3.42;;;2.50;99.90;;;;;;4957625;28;20063;-72
2022/02/07 07:18:51;;;;;;;16.10;3.40;;;2.60;99.90;;;;;;4932452;29;20059;-73
2022/02/07 07:21:19;;;;;;;14.30;3.05;;;2.60;99.90;;;;;;4822979;23;20433;-77
2022/02/07 07:23:48;;;;;;;20.52;4.00;;;2.70;99.90;;;;;;4977550;28;20053;-77
2022/02/07 07:26:15;;;;;;;15.27;3.53;;;2.80;99.90;;;;;;4967764;28;20042;-77
2022/02/07 07:28:43;;;;;;;25.95;4.18;;;2.80;99.90;;;;;;4984069;28;20081;-76
2022/02/07 07:31:12;;;;;;;21.27;5.00;;;2.80;99.90;;;;;;4984420;28;20428;-77
2022/02/07 07:33:45;;;;;;;22.10;4.28;;;2.70;99.90;;;;;;4961811;28;20051;-77
2022/02/07 07:36:12;;;;;;;25.42;4.70;;;2.80;99.90;;;;;;4980721;28;20642;-76
2022/02/07 07:38:39;;;;;;;23.20;4.25;;;2.70;99.90;;;;;;4976328;28;20420;-79
2022/02/07 07:41:07;;;;;;;22.00;4.22;;;2.70;99.90;;;;;;4997491;28;20049;-77
2022/02/07 07:43:45;;;;;;;14.93;3.90;;;2.80;99.90;;;;;;4961650;28;20042;-77
2022/02/07 07:46:25;;;;;;;25.42;5.10;;;2.80;99.90;;;;;;5001569;28;20046;-77
2022/02/07 07:49:32;;;;;;;29.17;4.63;;;2.80;99.90;;;;;;4959444;28;20047;-77
2022/02/07 07:52:12;;;;;;;23.48;5.40;;;2.90;99.90;;;;;;4948923;28;20039;-78
2022/02/07 07:55:27;;;;;;;13.55;4.22;;;2.90;99.90;;;;;;4982850;28;20050;-77
2022/02/07 08:03:27;;;;;;;24.15;4.68;;;2.90;99.90;;;;;;4987380;28;20115;-78
2022/02/07 08:06:12;;;;;;;26.52;4.47;;;2.90;99.90;;;;;;4973114;28;20089;-78
2022/02/07 08:09:14;;;;;;;25.20;4.68;;;3.00;99.90;;;;;;4976689;28;20056;-77
2022/02/07 08:11:26;;;;;;;25.85;4.88;;;3.00;99.90;;;;;;4990601;28;20132;-78
2022/02/07 08:14:00;;;;;;;22.23;4.50;;;3.10;99.90;;;;;;4976549;28;20046;-77
2022/02/07 08:16:29;;;;;;;21.67;4.55;;;3.20;99.90;;;;;;4968753;28;20050;-77
2022/02/07 08:19:01;;;;;;;20.42;3.55;;;3.20;99.90;;;;;;4970677;28;20114;-78
2022/02/07 08:21:28;;;;;;;28.20;4.60;;;3.10;99.90;;;;;;4985418;28;20145;-76
2022/02/07 08:23:55;;;;;;;24.00;5.22;;;3.20;99.90;;;;;;4967875;28;20125;-76
2022/02/07 08:26:22;;;;;;;34.42;5.00;;;3.20;99.90;;;;;;4979840;28;20066;-78
2022/02/07 08:28:50;;;;;;;35.35;4.20;;;3.10;99.90;;;;;;4987874;28;20061;-77
2022/02/07 08:31:17;;;;;;;36.42;6.03;;;3.20;99.90;;;;;;4967094;28;20074;-78
2022/02/07 08:33:46;;;;;;;18.90;3.95;;;3.30;99.90;;;;;;4975751;28;20057;-78
2022/02/07 08:36:16;;;;;;;23.98;4.13;;;3.30;99.90;;;;;;4970299;28;20164;-77
2022/02/07 08:38:43;;;;;;;23.83;6.38;;;3.30;99.90;;;;;;5010252;28;20050;-75
2022/02/07 08:41:10;;;;;;;30.30;4.85;;;3.40;99.90;;;;;;5002644;28;20507;-75
2022/02/07 08:43:37;;;;;;;25.85;4.43;;;3.40;99.90;;;;;;5007252;28;20053;-77
2022/02/07 08:46:04;;;;;;;21.52;4.28;;;3.30;99.90;;;;;;5017551;28;20088;-77
2022/02/07 08:48:31;;;;;;;20.40;4.38;;;3.40;99.90;;;;;;4970185;28;20058;-78
2022/02/07 08:50:58;;;;;;;27.98;5.15;;;3.30;99.90;;;;;;4985226;28;20053;-79
2022/02/07 08:53:32;;;;;;;23.10;4.03;;;3.40;99.90;;;;;;4987278;28;20137;-80
2022/02/07 08:56:01;;;;;;;15.55;4.13;;;3.40;99.90;;;;;;4985671;28;20412;-77
2022/02/07 08:58:30;;;;;;;27.50;3.80;;;3.40;99.90;;;;;;4969692;28;20050;-78
2022/02/07 09:01:08;;;;;;;13.95;3.38;;;3.50;99.90;;;;;;5003827;28;20491;-77
2022/02/07 09:06:29;;;;;;;23.88;4.55;;;3.40;99.90;;;;;;4985436;28;20544;-81
2022/02/07 09:09:16;;;;;;;14.38;3.22;;;3.50;99.90;;;;;;4991637;28;20045;-79
2022/02/07 09:11:43;;;;;;;18.95;3.83;;;3.50;99.90;;;;;;4983155;28;20097;-80
2022/02/07 09:14:12;;;;;;;13.65;4.82;;;3.60;99.90;;;;;;4982859;28;20047;-77
2022/02/07 09:16:40;;;;;;;20.67;3.85;;;3.50;99.90;;;;;;4985296;28;20141;-78
2022/02/07 09:19:08;;;;;;;21.92;5.15;;;3.50;99.90;;;;;;4971119;28;20149;-78
2022/02/07 09:21:35;;;;;;;13.05;3.20;;;3.50;99.90;;;;;;4986685;28;20448;-78
2022/02/07 09:24:04;;;;;;;20.25;4.22;;;3.60;99.90;;;;;;5002729;28;20504;-78
2022/02/07 09:26:30;;;;;;;20.00;3.25;;;3.60;99.90;;;;;;4967400;28;20050;-77
2022/02/07 09:28:59;;;;;;;14.48;3.53;;;3.70;99.90;;;;;;4985948;28;20108;-78
2022/02/07 09:31:26;;;;;;;20.27;4.38;;;3.70;99.90;;;;;;4989961;28;20050;-78
2022/02/07 09:33:53;;;;;;;26.80;3.83;;;3.70;99.90;;;;;;5007895;28;20129;-78
2022/02/07 09:36:22;;;;;;;23.05;3.90;;;3.70;99.90;;;;;;4989406;28;20289;-80
2022/02/07 09:38:49;;;;;;;19.35;4.95;;;3.80;99.90;;;;;;4972623;28;20085;-78
2022/02/07 09:41:18;;;;;;;24.52;4.80;;;3.80;99.90;;;;;;4985336;28;20103;-80
2022/02/07 09:43:49;;;;;;;18.95;4.55;;;3.80;99.90;;;;;;4985320;28;20046;-78
2022/02/07 09:46:33;;;;;;;31.50;7.25;;;3.80;99.90;;;;;;4983637;28;20141;-78
2022/02/07 09:49:00;;;;;;;21.48;4.65;;;3.90;99.90;;;;;;4976638;28;20111;-78
2022/02/07 09:51:26;;;;;;;17.35;3.90;;;3.90;99.90;;;;;;4985164;28;20039;-81
2022/02/07 09:53:53;;;;;;;18.77;3.92;;;3.90;99.90;;;;;;4954694;28;20184;-79
2022/02/07 09:56:20;;;;;;;19.02;4.00;;;3.90;99.90;;;;;;4985195;28;20584;-81
2022/02/07 09:58:50;;;;;;;26.52;5.68;;;3.80;99.90;;;;;;4951168;28;20073;-79
2022/02/07 10:01:25;;;;;;;24.42;4.20;;;3.90;99.90;;;;;;4983492;28;20791;-80
2022/02/07 10:04:14;;;;;;;28.55;5.78;;;3.90;99.90;;;;;;4985132;28;20517;-77
2022/02/07 10:09:41;;;;;;;28.60;4.50;;;4.00;99.90;;;;;;4998887;28;20216;-79
2022/02/07 10:41:06;;;;;;;27.45;7.45;;;4.50;99.90;;;;;;5009874;28;20748;-81
2022/02/07 10:46:14;;;;;;;18.15;7.13;;;4.60;99.90;;;;;;5024373;28;20049;-79
2022/02/07 10:48:52;;;;;;;26.95;8.68;;;4.60;99.90;;;;;;4987510;28;20134;-78
2022/02/07 10:51:31;;;;;;;28.23;10.48;;;4.70;99.90;;;;;;4969954;28;20054;-80
2022/02/07 10:54:13;;;;;;;25.25;8.15;;;4.80;99.90;;;;;;4980891;28;20046;-77
2022/02/07 10:56:45;;;;;;;19.30;7.80;;;4.90;99.90;;;;;;4973892;28;20050;-78
2022/02/07 10:59:19;;;;;;;27.48;8.70;;;4.90;99.90;;;;;;5008358;28;20120;-79
2022/02/07 11:04:29;;;;;;;36.03;9.35;;;5.10;99.90;;;;;;4989955;28;20655;-78
2022/02/07 11:07:02;;;;;;;39.75;9.30;;;5.20;99.90;;;;;;5007998;28;20042;-78
2022/02/07 11:15:07;;;;;;;26.42;11.10;;;5.10;99.90;;;;;;5007627;28;20113;-78
2022/02/07 11:17:52;;;;;;;28.42;10.88;;;5.00;99.90;;;;;;4971372;28;20145;-78
2022/02/07 11:23:07;;;;;;;;;;;5.30;99.90;;;;;;4993726;28;20046;-77
2022/02/07 11:25:56;;;;;;;23.17;9.00;;;5.30;99.90;;;;;;4988568;28;20132;-78
2022/02/07 11:28:25;;;;;;;31.60;9.85;;;5.30;99.90;;;;;;4974449;28;20648;-78
2022/02/07 11:30:56;;;;;;;38.88;9.18;;;5.20;99.90;;;;;;4992145;28;20054;-77
2022/02/07 11:33:39;;;;;;;41.50;9.95;;;5.30;99.90;;;;;;4994114;28;20084;-78
2022/02/07 11:36:40;;;;;;;24.85;9.00;;;5.40;99.90;;;;;;4976815;28;20088;-78
2022/02/07 11:39:16;;;;;;;34.83;10.07;;;5.40;99.90;;;;;;4993956;28;20111;-77
2022/02/07 11:42:04;;;;;;;31.70;9.10;;;5.60;99.90;;;;;;5014979;28;20397;-77
2022/02/07 11:44:43;;;;;;;36.72;8.80;;;5.70;99.90;;;;;;4987648;28;20049;-77
2022/02/07 11:47:13;;;;;;;32.00;10.40;;;6.00;99.90;;;;;;4982151;28;20270;-77
2022/02/07 11:49:41;;;;;;;26.73;9.57;;;5.90;99.90;;;;;;4970350;28;20584;-77
2022/02/07 11:52:27;;;;;;;29.48;8.73;;;5.90;99.90;;;;;;4978289;28;20069;-78
2022/02/07 11:54:55;;;;;;;25.50;9.93;;;5.90;99.90;;;;;;4991925;28;20073;-77
2022/02/07 11:57:24;;;;;;;27.10;9.02;;;5.90;99.90;;;;;;4991294;28;20050;-77
2022/02/07 12:00:09;;;;;;;33.53;10.35;;;5.80;99.90;;;;;;4973430;28;20723;-77
2022/02/07 12:02:37;;;;;;;28.52;9.02;;;5.80;99.90;;;;;;5001749;28;20056;-78
2022/02/07 12:05:08;;;;;;;32.33;8.48;;;6.00;99.90;;;;;;4990426;28;20042;-78
2022/02/07 12:07:38;;;;;;;28.55;11.65;;;6.10;99.90;;;;;;4985884;28;20046;-77
2022/02/07 12:12:37;;;;;;;27.10;11.32;;;6.20;99.90;;;;;;5017620;28;20061;-77
2022/02/07 12:15:06;;;;;;;29.40;10.63;;;6.00;99.90;;;;;;4970014;28;20661;-75
2022/02/07 12:17:45;;;;;;;22.73;10.07;;;6.00;99.90;;;;;;4948071;28;20146;-76
2022/02/07 12:20:14;;;;;;;18.65;10.30;;;6.00;99.90;;;;;;4970204;28;20305;-81
2022/02/07 12:23:04;;;;;;;22.48;12.40;;;6.20;99.90;;;;;;4995054;28;20379;-80
2022/02/07 12:25:45;;;;;;;31.55;13.40;;;6.40;99.90;;;;;;5008807;28;20057;-82
2022/02/07 12:28:18;;;;;;;25.85;11.98;;;6.50;99.90;;;;;;5008375;28;20086;-83
2022/02/07 12:33:14;;;;;;;23.60;10.52;;;6.20;99.90;;;;;;5019575;28;20066;-82
2022/02/07 12:35:53;;;;;;;27.90;12.75;;;6.00;99.90;;;;;;5000237;28;20379;-81
2022/02/07 12:38:22;;;;;;;18.60;12.02;;;5.90;99.90;;;;;;4991825;28;20107;-82
2022/02/07 12:40:49;;;;;;;22.90;11.27;;;5.80;99.90;;;;;;5006709;28;20046;-80
2022/02/07 12:43:18;;;;;;;23.55;10.82;;;5.80;99.90;;;;;;5010310;28;20081;-82
2022/02/07 12:45:45;;;;;;;24.17;11.43;;;6.00;99.90;;;;;;4991310;28;20054;-82
2022/02/07 12:48:18;;;;;;;27.17;10.27;;;6.10;99.90;;;;;;4991492;28;20129;-82
2022/02/07 12:50:53;;;;;;;29.42;8.90;;;5.90;99.90;;;;;;4984720;28;20058;-83
2022/02/07 12:53:22;;;;;;;21.10;10.43;;;5.80;99.90;;;;;;4986558;28;20182;-82
2022/02/07 12:55:57;;;;;;;30.15;11.60;;;5.80;99.90;;;;;;5002228;28;20058;-82
2022/02/07 12:58:34;;;;;;;21.70;11.40;;;5.80;99.90;;;;;;4990756;28;20117;-81
2022/02/07 13:01:27;;;;;;;27.75;10.77;;;6.10;99.90;;;;;;4990982;28;20068;-82
2022/02/07 13:04:15;;;;;;;23.30;12.50;;;6.20;99.90;;;;;;4988588;28;20038;-82
2022/02/07 13:06:48;;;;;;;23.17;11.77;;;6.30;99.90;;;;;;4999785;28;20046;-81
2022/02/07 13:09:29;;;;;;;23.40;12.73;;;6.40;99.90;;;;;;4989013;28;20451;-80
2022/02/07 13:14:46;;;;;;;27.17;12.43;;;6.80;99.90;;;;;;5003939;28;20046;-81
2022/02/07 13:17:15;;;;;;;23.50;11.13;;;6.90;99.90;;;;;;5008258;28;20078;-82
2022/02/07 13:19:45;;;;;;;20.00;12.50;;;6.80;99.90;;;;;;4976839;28;20054;-82
2022/02/07 13:22:15;;;;;;;19.33;13.45;;;6.80;99.90;;;;;;4950262;23;20517;-77
2022/02/07 13:24:43;;;;;;;29.52;11.32;;;6.80;99.90;;;;;;5000864;28;20046;-76
2022/02/07 13:27:14;;;;;;;27.90;11.38;;;6.80;99.90;;;;;;4991257;28;20050;-76
2022/02/07 13:29:45;;;;;;;20.00;11.32;;;6.70;99.90;;;;;;5026447;28;20108;-76
2022/02/07 13:32:14;;;;;;;22.02;10.60;;;6.60;99.90;;;;;;5026151;28;20607;-76
2022/02/07 13:34:42;;;;;;;27.27;10.93;;;6.40;99.90;;;;;;5042055;28;20073;-77
2022/02/07 13:37:10;;;;;;;24.73;11.55;;;6.40;99.90;;;;;;5004187;28;20515;-76
2022/02/07 13:39:51;;;;;;;15.38;10.32;;;6.60;99.90;;;;;;5021948;28;20052;-77
2022/02/07 13:42:18;;;;;;;21.67;10.70;;;6.60;99.90;;;;;;5021636;28;20132;-76
2022/02/07 13:44:45;;;;;;;23.52;9.82;;;6.50;99.90;;;;;;5005108;28;20052;-76
2022/02/07 13:47:11;;;;;;;26.05;10.25;;;6.50;99.90;;;;;;5004440;28;20120;-76
2022/02/07 13:49:58;;;;;;;24.77;10.70;;;6.50;99.90;;;;;;5004699;28;20069;-76
2022/02/07 13:52:35;;;;;;;33.05;10.75;;;6.50;99.90;;;;;;5021575;28;20049;-76
2022/02/07 13:55:16;;;;;;;16.17;9.98;;;6.60;99.90;;;;;;4985853;28;20623;-77
2022/02/07 13:58:38;;;;;;;23.52;10.13;;;6.70;99.90;;;;;;4988209;28;20085;-75
2022/02/07 14:01:09;;;;;;;23.15;9.75;;;6.60;99.90;;;;;;4942252;29;20223;-76
2022/02/07 14:03:42;;;;;;;21.00;9.02;;;6.60;99.90;;;;;;4978765;28;20436;-77
2022/02/07 14:06:14;;;;;;;28.52;9.32;;;6.50;99.90;;;;;;4992545;28;20324;-76
2022/02/07 14:08:57;;;;;;;27.77;9.82;;;6.30;99.90;;;;;;4993355;28;20049;-76
2022/02/07 14:11:29;;;;;;;24.27;7.95;;;6.10;99.90;;;;;;5003803;28;20124;-77
2022/02/07 14:14:05;;;;;;;19.88;8.77;;;6.00;99.90;;;;;;5005195;28;20161;-76
2022/02/07 14:16:33;;;;;;;28.40;9.82;;;5.90;99.90;;;;;;5020460;28;20107;-76
2022/02/07 14:19:00;;;;;;;16.85;9.00;;;5.90;99.90;;;;;;5003641;28;20665;-76
2022/02/07 14:21:31;;;;;;;18.25;8.05;;;5.80;99.90;;;;;;4987459;28;20532;-75
2022/02/07 14:23:59;;;;;;;19.08;7.65;;;5.70;99.90;;;;;;5004625;28;20537;-75
2022/02/07 14:26:46;;;;;;;23.38;8.57;;;5.70;99.90;;;;;;5001414;28;20061;-76
2022/02/07 14:29:12;;;;;;;19.95;8.25;;;5.60;99.90;;;;;;5001661;28;20370;-76
2022/02/07 14:31:39;;;;;;;22.33;7.88;;;5.60;99.90;;;;;;4992920;28;20049;-76
2022/02/07 14:34:07;;;;;;;13.68;7.25;;;5.60;99.90;;;;;;5022466;28;20500;-76
2022/02/07 14:36:36;;;;;;;18.02;7.20;;;5.50;99.90;;;;;;5021287;28;20447;-76
2022/02/07 14:39:03;;;;;;;24.95;6.90;;;5.40;99.90;;;;;;5024710;28;20076;-76
2022/02/07 14:41:31;;;;;;;19.73;9.02;;;5.30;99.90;;;;;;5020421;28;20111;-75
2022/02/07 14:44:01;;;;;;;14.80;7.00;;;5.20;99.90;;;;;;5022710;28;20112;-76
2022/02/07 14:46:42;;;;;;;18.55;7.22;;;5.20;99.90;;;;;;5019638;28;20092;-76
2022/02/07 14:49:09;;;;;;;22.30;8.00;;;5.10;99.90;;;;;;5020228;28;20111;-76
2022/02/07 14:51:36;;;;;;;13.48;8.05;;;5.10;99.90;;;;;;5019598;28;20609;-76
2022/02/07 14:54:03;;;;;;;20.92;7.97;;;5.10;99.90;;;;;;5019149;28;20131;-75
2022/02/07 14:56:30;;;;;;;11.82;7.32;;;5.20;99.90;;;;;;5001306;28;20087;-75
2022/02/07 14:58:57;;;;;;;27.88;7.28;;;5.30;99.90;;;;;;5020645;28;20136;-76
2022/02/07 15:01:24;;;;;;;18.52;7.18;;;5.40;99.90;;;;;;5003296;28;20053;-75
2022/02/07 15:03:51;;;;;;;22.13;9.40;;;5.50;99.90;;;;;;5003245;28;20578;-75
2022/02/07 15:06:18;;;;;;;13.40;7.32;;;5.60;99.90;;;;;;5024221;28;20045;-75
2022/02/07 15:08:45;;;;;;;24.10;8.70;;;5.70;99.90;;;;;;5012914;28;20116;-76
2022/02/07 15:11:16;;;;;;;14.15;7.45;;;5.70;99.90;;;;;;5019092;28;20140;-76
2022/02/07 15:13:43;;;;;;;17.55;8.80;;;5.80;99.90;;;;;;5003394;28;20057;-75
2022/02/07 15:16:09;;;;;;;22.48;9.45;;;5.80;99.90;;;;;;5002852;28;20144;-76
2022/02/07 15:18:41;;;;;;;17.35;9.02;;;5.80;99.90;;;;;;5020139;28;20044;-77
2022/02/07 15:21:08;;;;;;;19.85;8.45;;;5.90;99.90;;;;;;4985012;28;20127;-77
2022/02/07 15:23:37;;;;;;;21.35;8.88;;;5.90;99.90;;;;;;4999479;28;20290;-77
2022/02/07 15:26:05;;;;;;;27.02;8.15;;;5.90;99.90;;;;;;4986575;28;20172;-77
2022/02/07 15:28:32;;;;;;;19.00;8.13;;;5.90;99.90;;;;;;5003225;28;20483;-75
2022/02/07 15:30:59;;;;;;;24.38;7.82;;;5.90;99.90;;;;;;4967290;28;20160;-77
2022/02/07 15:33:33;;;;;;;22.45;8.80;;;5.70;99.90;;;;;;5002068;28;20123;-76
2022/02/07 15:36:02;;;;;;;23.95;7.93;;;5.60;99.90;;;;;;4985660;28;20309;-78
2022/02/07 15:38:29;;;;;;;19.85;8.20;;;5.50;99.90;;;;;;5008085;28;20253;-75
2022/02/07 15:40:57;;;;;;;19.65;8.27;;;5.50;99.90;;;;;;5002030;28;20065;-75
2022/02/07 15:43:24;;;;;;;21.55;10.43;;;5.40;99.90;;;;;;5021360;28;20141;-77